Time;durP1;ratioP1;P1;durP2;ratioP2;P2;SDS_P1;SDS_P2;PMS_P1;PMS_P2;Temp;Humidity;BMP_temperature;BMP_pressure;BME280_temperature;BME280_humidity;BME280_pressure;Samples;Min_cycle;Max_cycle;Signal;HPM_P1;HPM_P2
2023/05/05 00:00:53;;;;;;;2.97;1.23;;;18.90;52.70;;;;;;5015446;28;20049;-91
2023/05/05 00:03:26;;;;;;;0.90;0.80;;;18.90;52.80;;;;;;5011638;28;20538;-93
2023/05/05 00:05:56;;;;;;;1.25;1.15;;;18.80;53.00;;;;;;5036818;28;20033;-92
2023/05/05 00:08:23;;;;;;;1.95;0.88;;;18.80;53.20;;;;;;5011682;28;20485;-92
2023/05/05 00:10:50;;;;;;;1.30;1.20;;;18.70;53.40;;;;;;5005452;28;20028;-92
2023/05/05 00:13:16;;;;;;;1.75;1.00;;;18.70;53.70;;;;;;5013086;28;20047;-87
2023/05/05 00:15:43;;;;;;;1.73;0.90;;;18.70;54.00;;;;;;4995959;28;20077;-87
2023/05/05 00:18:10;;;;;;;1.50;1.10;;;18.70;54.00;;;;;;5035783;28;20026;-87
2023/05/05 00:20:36;;;;;;;1.38;1.08;;;18.70;54.30;;;;;;5033213;28;20037;-86
2023/05/05 00:23:02;;;;;;;1.17;1.00;;;18.60;54.40;;;;;;5043183;28;20054;-87
2023/05/05 00:25:28;;;;;;;1.48;0.95;;;18.60;54.60;;;;;;5022594;28;20056;-86
2023/05/05 00:27:54;;;;;;;2.15;1.48;;;18.60;54.80;;;;;;5020733;28;20041;-87
2023/05/05 00:30:20;;;;;;;2.75;1.13;;;18.60;54.80;;;;;;4997942;28;20061;-87
2023/05/05 00:32:49;;;;;;;1.67;1.13;;;18.60;55.00;;;;;;5049192;28;20416;-86
2023/05/05 00:35:16;;;;;;;1.95;0.90;;;18.50;55.10;;;;;;5031457;28;20030;-87
2023/05/05 00:37:42;;;;;;;1.13;0.75;;;18.50;55.30;;;;;;5013259;28;20400;-87
2023/05/05 00:40:08;;;;;;;1.10;1.05;;;18.50;55.50;;;;;;4996745;28;20033;-87
2023/05/05 00:42:43;;;;;;;1.25;0.98;;;18.40;55.50;;;;;;4997288;28;20421;-87
2023/05/05 00:45:14;;;;;;;2.55;1.20;;;18.40;55.70;;;;;;5005609;28;20056;-86
2023/05/05 00:47:47;;;;;;;2.72;0.75;;;18.40;55.70;;;;;;5013815;28;20427;-87
2023/05/05 00:50:21;;;;;;;1.33;0.90;;;18.40;55.90;;;;;;5038463;28;20034;-86
2023/05/05 00:52:48;;;;;;;0.80;0.80;;;18.30;56.10;;;;;;5015740;28;20026;-87
2023/05/05 00:55:13;;;;;;;1.98;0.80;;;18.20;56.10;;;;;;5009938;28;20037;-87
2023/05/05 00:57:39;;;;;;;1.48;1.10;;;18.20;56.40;;;;;;5012701;28;20025;-86
2023/05/05 01:00:08;;;;;;;5.50;1.10;;;18.20;56.50;;;;;;5009598;28;20037;-86
2023/05/05 01:02:34;;;;;;;1.08;0.98;;;18.20;56.80;;;;;;4988353;28;20501;-86
2023/05/05 01:05:00;;;;;;;0.90;0.80;;;18.10;56.80;;;;;;5048488;28;20037;-86
2023/05/05 01:08:11;;;;;;;1.30;1.20;;;18.00;56.80;;;;;;4995965;28;20934;-86
2023/05/05 01:10:51;;;;;;;1.15;1.05;;;18.00;56.70;;;;;;5043464;28;20448;-86
2023/05/05 01:13:46;;;;;;;1.10;1.00;;;18.00;56.90;;;;;;5012216;28;20034;-92
2023/05/05 01:16:29;;;;;;;3.05;1.25;;;18.00;56.80;;;;;;5015594;28;20033;-92
2023/05/05 01:19:10;;;;;;;2.83;1.40;;;18.00;56.80;;;;;;5019357;28;20030;-92
2023/05/05 01:21:45;;;;;;;1.65;1.00;;;18.00;56.90;;;;;;5047659;28;20026;-92
2023/05/05 01:24:35;;;;;;;2.72;1.27;;;18.00;57.10;;;;;;5033141;28;20030;-91
2023/05/05 01:27:37;;;;;;;1.27;0.73;;;18.00;57.10;;;;;;5031190;28;20026;-86
2023/05/05 01:30:24;;;;;;;1.60;1.20;;;17.90;57.10;;;;;;5061283;28;20045;-87
2023/05/05 01:32:55;;;;;;;0.77;0.77;;;17.90;57.50;;;;;;5053977;28;20033;-86
2023/05/05 01:35:34;;;;;;;2.47;1.20;;;17.80;57.70;;;;;;5049035;28;20118;-87
2023/05/05 01:38:03;;;;;;;1.50;1.20;;;17.80;57.90;;;;;;5026350;28;20363;-87
2023/05/05 01:40:32;;;;;;;1.58;1.02;;;17.70;57.80;;;;;;5077463;28;20028;-87
2023/05/05 01:43:00;;;;;;;3.50;1.52;;;17.80;58.10;;;;;;5032313;28;20039;-87
2023/05/05 01:45:30;;;;;;;4.65;1.95;;;17.80;58.00;;;;;;5036737;28;20043;-92
2023/05/05 01:47:58;;;;;;;3.60;2.40;;;17.90;58.60;;;;;;5036241;28;20124;-91
2023/05/05 01:50:27;;;;;;;2.13;1.80;;;17.90;58.60;;;;;;5035594;28;20029;-92
2023/05/05 01:52:54;;;;;;;2.30;1.50;;;18.10;58.50;;;;;;5035568;28;20043;-91
2023/05/05 01:55:23;;;;;;;3.15;2.42;;;18.20;58.40;;;;;;5018284;28;20025;-92
2023/05/05 01:57:50;;;;;;;2.22;1.42;;;18.30;58.70;;;;;;5034996;28;20025;-91
2023/05/05 02:00:18;;;;;;;4.30;2.28;;;18.40;58.80;;;;;;5022735;28;20021;-86
2023/05/05 02:02:46;;;;;;;3.80;1.90;;;18.40;58.90;;;;;;5033057;28;20391;-92
2023/05/05 02:05:14;;;;;;;4.03;2.50;;;18.40;58.90;;;;;;5034904;28;20025;-91
2023/05/05 02:07:40;;;;;;;7.25;2.40;;;18.50;59.10;;;;;;5068031;28;20029;-91
2023/05/05 02:10:08;;;;;;;4.10;2.00;;;18.50;59.80;;;;;;5038201;28;20056;-91
2023/05/05 02:12:36;;;;;;;3.08;1.80;;;18.50;59.00;;;;;;5052000;28;20095;-91
2023/05/05 02:15:02;;;;;;;3.20;2.30;;;18.50;59.10;;;;;;5015040;28;20092;-90
2023/05/05 02:17:29;;;;;;;2.22;1.50;;;18.60;59.20;;;;;;5009762;28;20672;-90
2023/05/05 02:19:57;;;;;;;3.15;2.10;;;18.50;59.20;;;;;;5050400;28;20025;-91
2023/05/05 02:22:23;;;;;;;4.07;1.55;;;18.60;59.70;;;;;;5022312;28;20029;-86
2023/05/05 02:24:49;;;;;;;2.58;1.85;;;18.60;59.60;;;;;;5023894;28;20087;-86
2023/05/05 02:27:17;;;;;;;2.03;1.25;;;18.60;59.80;;;;;;5027514;28;20044;-85
2023/05/05 02:29:57;;;;;;;1.90;1.70;;;18.50;59.70;;;;;;5038310;28;20131;-85
2023/05/05 02:32:36;;;;;;;2.75;1.58;;;18.50;59.80;;;;;;5041598;28;20037;-85
2023/05/05 02:35:23;;;;;;;4.10;1.40;;;18.50;60.10;;;;;;5031629;28;20036;-92
2023/05/05 02:38:03;;;;;;;1.90;1.50;;;18.50;60.20;;;;;;5034667;28;20472;-91
2023/05/05 02:40:31;;;;;;;3.53;1.80;;;18.40;60.40;;;;;;5027969;28;20021;-92
2023/05/05 02:43:02;;;;;;;3.05;1.80;;;18.40;60.40;;;;;;5037813;28;20025;-91
2023/05/05 02:45:28;;;;;;;2.85;1.92;;;18.40;60.50;;;;;;5034717;28;20033;-91
2023/05/05 02:47:53;;;;;;;1.63;1.33;;;18.30;60.60;;;;;;5018214;28;20029;-91
2023/05/05 02:50:19;;;;;;;1.90;1.00;;;18.30;60.80;;;;;;5029251;28;20053;-92
2023/05/05 02:52:45;;;;;;;1.85;1.15;;;18.30;60.70;;;;;;5018701;28;20467;-92
2023/05/05 02:55:15;;;;;;;1.63;1.23;;;18.30;60.70;;;;;;5036311;28;20032;-92
2023/05/05 02:57:48;;;;;;;6.13;1.00;;;18.20;60.70;;;;;;5055531;28;20025;-91
2023/05/05 03:00:17;;;;;;;1.48;0.93;;;18.20;60.80;;;;;;5039852;28;20018;-92
2023/05/05 03:03:02;;;;;;;1.02;0.85;;;18.20;60.90;;;;;;5054805;28;20041;-92
2023/05/05 03:05:39;;;;;;;1.73;1.00;;;18.10;60.90;;;;;;5038154;28;20032;-92
2023/05/05 03:08:26;;;;;;;1.23;1.02;;;18.10;61.00;;;;;;5038090;28;20017;-92
2023/05/05 03:11:22;;;;;;;1.77;1.10;;;18.10;61.10;;;;;;5052247;28;20029;-86
2023/05/05 03:13:51;;;;;;;1.50;1.02;;;18.00;61.40;;;;;;5032316;28;20056;-86
2023/05/05 03:16:20;;;;;;;2.65;1.00;;;17.90;61.60;;;;;;5054825;28;20025;-92
2023/05/05 03:18:47;;;;;;;1.60;1.05;;;17.80;61.70;;;;;;5056554;28;20024;-92
2023/05/05 03:21:13;;;;;;;3.25;1.30;;;17.80;61.90;;;;;;5047438;28;20514;-92
2023/05/05 03:23:39;;;;;;;1.58;1.20;;;17.70;62.00;;;;;;5057916;28;20025;-92
2023/05/05 03:26:05;;;;;;;1.35;1.10;;;17.70;62.20;;;;;;5021270;28;20449;-92
2023/05/05 03:28:31;;;;;;;1.77;1.00;;;17.60;62.30;;;;;;5019886;28;20040;-92
2023/05/05 03:30:57;;;;;;;1.48;1.23;;;17.50;62.50;;;;;;5006540;28;20033;-92
2023/05/05 03:33:22;;;;;;;2.35;1.00;;;17.50;62.60;;;;;;5050572;28;20102;-92
2023/05/05 03:35:48;;;;;;;1.10;0.75;;;17.40;62.70;;;;;;5017297;28;20014;-92
2023/05/05 03:38:14;;;;;;;1.50;1.05;;;17.40;62.90;;;;;;5017971;28;20141;-91
2023/05/05 03:40:39;;;;;;;3.90;1.52;;;17.30;62.90;;;;;;5041188;28;20029;-91
2023/05/05 03:43:05;;;;;;;1.70;1.55;;;17.20;63.00;;;;;;5002869;28;20494;-92
2023/05/05 03:45:35;;;;;;;2.42;1.20;;;17.20;63.20;;;;;;5008948;28;20033;-92
2023/05/05 03:48:02;;;;;;;4.20;1.65;;;17.10;63.60;;;;;;5014149;28;20033;-90
2023/05/05 03:50:27;;;;;;;1.55;1.30;;;17.00;63.80;;;;;;5045417;28;20026;-90
2023/05/05 03:52:53;;;;;;;2.72;1.60;;;16.90;64.10;;;;;;5022796;28;20435;-90
2023/05/05 03:55:19;;;;;;;4.65;1.80;;;16.80;64.40;;;;;;5000367;28;20057;-92
2023/05/05 03:57:45;;;;;;;1.77;1.33;;;16.80;64.60;;;;;;5003819;28;20028;-91
2023/05/05 04:00:11;;;;;;;2.97;1.15;;;16.70;64.70;;;;;;4997447;28;20430;-91
2023/05/05 04:02:37;;;;;;;2.10;1.10;;;16.70;64.80;;;;;;5006240;28;20029;-92
2023/05/05 04:05:03;;;;;;;2.13;1.35;;;16.70;64.90;;;;;;4997089;28;20511;-86
2023/05/05 04:07:28;;;;;;;3.60;1.58;;;16.60;65.10;;;;;;5021598;28;20030;-92
2023/05/05 04:09:54;;;;;;;3.08;1.95;;;16.60;65.30;;;;;;4998147;28;20029;-92
2023/05/05 04:12:20;;;;;;;3.72;2.10;;;16.60;65.50;;;;;;5033586;28;20082;-91
2023/05/05 04:14:46;;;;;;;2.72;2.00;;;16.60;65.70;;;;;;5018514;28;20037;-92
2023/05/05 04:17:11;;;;;;;3.58;2.00;;;16.60;65.70;;;;;;5016861;28;20025;-92
2023/05/05 04:19:37;;;;;;;4.53;2.38;;;16.60;65.90;;;;;;5033533;28;20026;-86
2023/05/05 04:22:03;;;;;;;2.90;2.45;;;16.60;66.10;;;;;;5002360;28;20056;-86
2023/05/05 04:24:28;;;;;;;5.15;2.55;;;16.60;66.30;;;;;;5005059;28;20037;-86
2023/05/05 04:26:55;;;;;;;3.45;2.35;;;16.60;66.20;;;;;;5028429;28;20065;-86
2023/05/05 04:29:20;;;;;;;6.03;2.85;;;16.60;66.40;;;;;;5026297;28;20041;-91
2023/05/05 04:31:46;;;;;;;3.63;2.15;;;16.60;66.60;;;;;;5018255;28;20518;-87
2023/05/05 04:34:28;;;;;;;3.78;1.90;;;16.60;66.50;;;;;;5040169;28;20031;-91
2023/05/05 04:36:53;;;;;;;5.18;2.80;;;16.60;66.60;;;;;;5017604;28;20178;-91
2023/05/05 04:39:19;;;;;;;4.80;2.65;;;16.60;66.90;;;;;;5032662;28;20466;-86
2023/05/05 04:41:45;;;;;;;2.60;1.73;;;16.60;67.20;;;;;;5018215;28;20025;-86
2023/05/05 04:44:10;;;;;;;3.28;2.70;;;16.50;67.10;;;;;;5024673;28;20036;-87
2023/05/05 04:46:36;;;;;;;4.50;2.85;;;16.50;67.30;;;;;;5018396;28;20033;-92
2023/05/05 04:49:03;;;;;;;4.47;2.70;;;16.50;67.50;;;;;;5034675;28;20033;-87
2023/05/05 04:51:30;;;;;;;4.00;2.25;;;16.50;67.50;;;;;;5032620;28;20083;-87
2023/05/05 04:53:56;;;;;;;5.13;2.45;;;16.50;67.60;;;;;;5035139;28;20028;-87
2023/05/05 04:56:22;;;;;;;4.40;1.98;;;16.50;67.60;;;;;;5012217;28;20025;-87
2023/05/05 04:58:49;;;;;;;4.00;2.67;;;16.60;67.60;;;;;;5007723;28;20092;-87
2023/05/05 05:01:15;;;;;;;3.22;2.10;;;16.60;67.70;;;;;;5015731;28;20025;-85
2023/05/05 05:03:41;;;;;;;3.85;2.42;;;16.60;67.90;;;;;;5031395;28;20070;-85
2023/05/05 05:06:07;;;;;;;4.95;1.80;;;16.60;67.80;;;;;;5018254;28;20045;-89
2023/05/05 05:08:32;;;;;;;3.53;2.20;;;16.60;67.90;;;;;;5035213;28;20519;-90
2023/05/05 05:10:58;;;;;;;5.85;2.80;;;16.60;68.10;;;;;;5033953;28;20064;-90
2023/05/05 05:13:24;;;;;;;4.82;2.50;;;16.60;68.20;;;;;;5031304;28;20094;-86
2023/05/05 05:15:50;;;;;;;4.63;2.90;;;16.60;68.40;;;;;;5048858;28;20037;-86
2023/05/05 05:18:16;;;;;;;3.22;2.25;;;16.60;68.60;;;;;;5032619;28;20020;-86
2023/05/05 05:20:42;;;;;;;4.88;2.92;;;16.60;68.70;;;;;;5032549;28;20025;-90
2023/05/05 05:23:07;;;;;;;4.32;2.60;;;16.70;68.90;;;;;;5045222;28;20025;-89
2023/05/05 05:25:33;;;;;;;3.58;2.80;;;16.70;68.90;;;;;;5054006;28;20049;-90
2023/05/05 05:27:59;;;;;;;4.43;2.80;;;16.70;68.80;;;;;;5033883;28;20017;-91
2023/05/05 05:30:24;;;;;;;2.88;2.22;;;16.80;68.80;;;;;;5026321;28;20042;-90
2023/05/05 05:32:50;;;;;;;4.00;2.53;;;16.90;68.60;;;;;;5027197;28;20128;-90
2023/05/05 05:35:16;;;;;;;2.78;1.92;;;16.90;68.40;;;;;;5063107;28;20029;-91
2023/05/05 05:37:42;;;;;;;3.80;2.65;;;17.00;68.20;;;;;;5031122;28;20089;-90
2023/05/05 05:40:08;;;;;;;3.45;2.65;;;17.10;68.20;;;;;;5031225;28;20530;-90
2023/05/05 05:42:34;;;;;;;3.72;2.38;;;17.10;68.10;;;;;;5035751;28;20499;-90
2023/05/05 05:45:00;;;;;;;6.78;2.42;;;17.10;68.20;;;;;;5017490;28;20040;-90
2023/05/05 05:47:26;;;;;;;3.47;2.05;;;17.10;68.20;;;;;;5034310;28;20083;-90
2023/05/05 05:49:52;;;;;;;3.30;2.38;;;17.20;68.40;;;;;;5032189;28;20064;-86
2023/05/05 05:52:18;;;;;;;5.82;1.80;;;17.20;68.40;;;;;;5015733;28;20068;-86
2023/05/05 05:54:43;;;;;;;2.47;1.42;;;17.30;68.40;;;;;;5033447;28;20035;-86
2023/05/05 05:57:09;;;;;;;2.22;1.63;;;17.30;68.40;;;;;;5032139;28;20040;-86
2023/05/05 05:59:35;;;;;;;3.58;1.90;;;17.30;68.20;;;;;;5016255;28;20030;-86
2023/05/05 06:02:00;;;;;;;3.20;1.98;;;17.40;68.30;;;;;;5052776;28;20028;-86
2023/05/05 06:04:26;;;;;;;2.50;1.52;;;17.50;68.40;;;;;;5022716;28;20018;-85
2023/05/05 06:06:52;;;;;;;3.28;1.58;;;17.60;68.40;;;;;;5018182;28;20065;-85
2023/05/05 06:09:17;;;;;;;3.30;2.08;;;17.60;68.40;;;;;;5016122;28;20841;-86
2023/05/05 06:11:43;;;;;;;2.22;1.67;;;17.70;68.30;;;;;;5018437;28;20033;-85
2023/05/05 06:14:09;;;;;;;2.40;1.92;;;17.70;68.10;;;;;;5048469;28;20476;-86
2023/05/05 06:16:35;;;;;;;2.78;1.48;;;17.80;68.20;;;;;;5043578;28;20415;-85
2023/05/05 06:19:00;;;;;;;1.88;1.40;;;17.80;68.10;;;;;;5015072;28;20033;-84
2023/05/05 06:21:26;;;;;;;3.47;1.85;;;17.90;68.00;;;;;;5031027;28;20083;-86
2023/05/05 06:23:52;;;;;;;5.80;2.28;;;17.90;68.00;;;;;;5027227;28;20497;-85
2023/05/05 06:26:17;;;;;;;2.55;2.03;;;17.90;68.10;;;;;;5060950;28;20040;-85
2023/05/05 06:28:43;;;;;;;3.30;2.08;;;18.10;68.00;;;;;;5014018;28;20029;-86
2023/05/05 06:31:11;;;;;;;2.50;1.73;;;18.10;68.00;;;;;;5025710;28;20140;-86
2023/05/05 06:33:38;;;;;;;5.40;2.13;;;18.20;68.00;;;;;;5035806;28;20225;-85
2023/05/05 06:36:04;;;;;;;2.60;1.42;;;18.30;67.70;;;;;;5034818;28;20044;-85
2023/05/05 06:38:29;;;;;;;3.05;1.73;;;18.40;67.50;;;;;;5036116;28;20029;-85
2023/05/05 06:40:57;;;;;;;2.60;1.58;;;18.50;67.30;;;;;;5002970;28;20037;-87
2023/05/05 06:43:23;;;;;;;1.55;1.10;;;18.60;67.10;;;;;;5068153;28;20044;-85
2023/05/05 06:45:48;;;;;;;4.05;1.48;;;18.70;66.90;;;;;;5023228;28;20025;-86
2023/05/05 06:48:14;;;;;;;1.20;0.90;;;18.80;66.50;;;;;;5001405;28;20105;-86
2023/05/05 06:50:41;;;;;;;2.40;1.02;;;18.90;66.20;;;;;;5043156;28;20083;-86
2023/05/05 06:53:06;;;;;;;1.88;1.35;;;19.10;66.00;;;;;;5035405;28;20029;-87
2023/05/05 06:55:32;;;;;;;1.77;0.82;;;19.10;65.60;;;;;;5019641;28;20022;-87
2023/05/05 06:57:58;;;;;;;3.22;1.25;;;19.20;65.40;;;;;;5050308;28;20025;-86
2023/05/05 07:00:24;;;;;;;2.00;1.20;;;19.30;65.10;;;;;;5034696;28;20067;-87
2023/05/05 07:02:49;;;;;;;4.00;1.35;;;19.30;64.80;;;;;;5017787;28;20025;-85
2023/05/05 07:05:16;;;;;;;1.33;1.00;;;19.30;64.70;;;;;;5044611;28;20029;-85
2023/05/05 07:07:55;;;;;;;2.65;1.25;;;19.40;64.60;;;;;;5029166;28;20037;-86
2023/05/05 07:10:22;;;;;;;2.75;1.55;;;19.40;64.40;;;;;;5035322;28;20060;-86
2023/05/05 07:12:48;;;;;;;2.53;0.98;;;19.50;64.40;;;;;;5030069;28;20021;-86
2023/05/05 07:15:14;;;;;;;0.90;0.80;;;19.50;63.70;;;;;;5031304;28;20029;-85
2023/05/05 07:17:40;;;;;;;2.10;1.20;;;19.50;63.80;;;;;;5034244;28;20036;-85
2023/05/05 07:20:07;;;;;;;1.80;1.02;;;19.60;63.70;;;;;;5036065;28;20028;-86
2023/05/05 07:22:33;;;;;;;1.63;1.00;;;19.50;63.40;;;;;;5050507;28;20029;-86
2023/05/05 07:24:59;;;;;;;2.42;1.48;;;19.50;63.40;;;;;;5017677;28;20120;-85
2023/05/05 07:27:25;;;;;;;0.70;0.65;;;19.50;63.50;;;;;;5015725;28;20033;-85
2023/05/05 07:29:50;;;;;;;1.90;0.88;;;19.50;63.40;;;;;;5037938;28;20542;-86
2023/05/05 07:32:16;;;;;;;3.70;2.10;;;19.60;64.00;;;;;;5022076;28;20538;-92
2023/05/05 07:34:42;;;;;;;6.47;2.13;;;19.50;63.70;;;;;;5031943;28;20430;-92
2023/05/05 07:37:09;;;;;;;1.85;1.50;;;19.50;64.20;;;;;;5031553;28;20021;-94
2023/05/05 07:39:35;;;;;;;2.92;1.95;;;19.50;64.40;;;;;;5020118;28;20021;-92
2023/05/05 07:42:01;;;;;;;3.75;2.03;;;19.60;64.30;;;;;;5037347;28;20025;-93
2023/05/05 07:44:27;;;;;;;1.38;1.15;;;19.70;64.40;;;;;;5021100;28;20032;-93
2023/05/05 07:46:52;;;;;;;2.55;1.50;;;19.80;64.40;;;;;;5019214;28;20036;-92
2023/05/05 07:49:19;;;;;;;3.35;0.90;;;19.90;64.10;;;;;;5044635;28;20017;-93
2023/05/05 07:51:45;;;;;;;3.65;1.23;;;20.00;63.70;;;;;;5037493;28;20040;-93
2023/05/05 07:54:11;;;;;;;3.75;1.95;;;20.10;63.50;;;;;;5036826;28;20035;-92
2023/05/05 07:56:37;;;;;;;2.92;1.77;;;20.10;64.00;;;;;;5053377;28;20022;-93
2023/05/05 07:59:03;;;;;;;3.35;1.88;;;20.20;63.30;;;;;;5073580;28;20507;-93
2023/05/05 08:01:28;;;;;;;1.98;1.38;;;20.30;63.20;;;;;;5031946;28;20025;-85
2023/05/05 08:03:54;;;;;;;3.78;1.00;;;20.40;62.60;;;;;;5032147;28;20079;-86
2023/05/05 08:06:23;;;;;;;1.55;1.08;;;20.40;62.30;;;;;;5023921;28;20575;-86
2023/05/05 08:08:52;;;;;;;1.40;1.10;;;20.40;62.20;;;;;;5042355;28;20034;-86
2023/05/05 08:11:18;;;;;;;2.20;1.13;;;20.50;62.10;;;;;;5018471;28;20123;-86
2023/05/05 08:13:44;;;;;;;1.73;1.00;;;20.60;62.00;;;;;;5031045;28;20045;-85
2023/05/05 08:16:14;;;;;;;1.38;1.23;;;20.60;61.90;;;;;;5025955;28;20028;-85
2023/05/05 08:18:39;;;;;;;1.40;0.93;;;20.70;61.70;;;;;;5021236;28;20017;-84
2023/05/05 08:21:07;;;;;;;2.38;1.00;;;20.80;61.30;;;;;;5049613;28;20491;-86
2023/05/05 08:23:33;;;;;;;1.02;0.70;;;20.90;60.70;;;;;;5033950;28;20055;-86
2023/05/05 08:26:00;;;;;;;3.03;1.55;;;21.00;60.70;;;;;;5017827;28;20097;-86
2023/05/05 08:28:26;;;;;;;3.17;1.20;;;21.10;60.70;;;;;;5032596;28;20029;-84
2023/05/05 08:30:52;;;;;;;3.58;1.38;;;21.10;60.50;;;;;;5033762;28;20415;-85
2023/05/05 08:33:17;;;;;;;2.72;1.40;;;21.10;60.30;;;;;;5035522;28;20119;-92
2023/05/05 08:35:43;;;;;;;2.05;0.93;;;21.10;60.40;;;;;;5053883;28;20086;-92
2023/05/05 08:38:12;;;;;;;2.75;1.50;;;21.10;60.50;;;;;;5044335;28;20021;-92
2023/05/05 08:40:39;;;;;;;2.35;1.67;;;21.20;60.30;;;;;;5019820;28;20031;-85
2023/05/05 08:43:05;;;;;;;4.68;2.00;;;21.20;60.20;;;;;;5033403;28;20510;-86
2023/05/05 08:45:31;;;;;;;2.75;1.50;;;21.20;60.20;;;;;;5034051;28;20017;-85
2023/05/05 08:48:00;;;;;;;1.92;1.20;;;21.20;60.10;;;;;;5014171;28;20045;-85
2023/05/05 08:50:27;;;;;;;1.35;1.05;;;21.20;60.00;;;;;;5033499;28;20023;-86
2023/05/05 08:53:10;;;;;;;2.38;1.60;;;21.30;60.00;;;;;;5003641;28;20040;-85
2023/05/05 08:55:50;;;;;;;1.40;1.15;;;21.40;59.70;;;;;;5042041;28;20029;-86
2023/05/05 08:58:18;;;;;;;1.30;0.80;;;21.60;58.90;;;;;;5028598;28;20016;-85
2023/05/05 09:00:45;;;;;;;2.17;1.10;;;21.80;58.80;;;;;;5032578;28;20051;-86
2023/05/05 09:03:11;;;;;;;1.10;1.00;;;21.90;58.10;;;;;;5056066;28;20045;-85
2023/05/05 09:05:37;;;;;;;0.80;0.73;;;22.00;57.80;;;;;;5028936;28;20036;-85
2023/05/05 09:08:09;;;;;;;1.80;1.30;;;22.10;57.70;;;;;;5030255;28;20375;-92
2023/05/05 09:10:36;;;;;;;1.80;1.10;;;22.30;57.40;;;;;;5013369;28;20369;-93
2023/05/05 09:13:05;;;;;;;1.40;0.80;;;22.40;57.10;;;;;;5047109;28;20044;-85
2023/05/05 09:15:32;;;;;;;3.33;1.40;;;22.50;56.40;;;;;;5033244;28;20043;-85
2023/05/05 09:17:59;;;;;;;1.42;0.80;;;22.60;56.30;;;;;;5051592;28;20021;-93
2023/05/05 09:20:34;;;;;;;1.13;0.80;;;22.60;56.10;;;;;;5037167;28;20021;-93
2023/05/05 09:23:19;;;;;;;2.55;1.40;;;22.60;56.00;;;;;;5046544;28;20542;-93
2023/05/05 09:25:47;;;;;;;1.20;0.70;;;22.40;55.60;;;;;;5058580;28;20024;-92
2023/05/05 09:28:14;;;;;;;1.48;0.73;;;22.20;56.10;;;;;;5042102;28;20472;-92
2023/05/05 09:30:42;;;;;;;1.10;0.93;;;22.20;56.30;;;;;;5035783;28;20041;-93
2023/05/05 09:33:08;;;;;;;1.02;0.73;;;22.20;56.40;;;;;;5035931;28;20044;-92
2023/05/05 09:35:51;;;;;;;1.85;0.88;;;22.20;55.70;;;;;;5066588;28;20439;-92
2023/05/05 09:38:18;;;;;;;2.28;0.63;;;22.10;55.20;;;;;;5066634;28;20029;-92
2023/05/05 09:40:48;;;;;;;1.13;1.02;;;21.90;55.10;;;;;;5069075;28;20112;-93
2023/05/05 09:43:16;;;;;;;0.70;0.50;;;21.90;55.20;;;;;;5051601;28;20129;-85
2023/05/05 09:45:42;;;;;;;0.77;0.77;;;22.00;55.40;;;;;;5042689;28;20057;-85
2023/05/05 09:48:25;;;;;;;0.70;0.60;;;22.20;55.40;;;;;;5033408;28;20025;-86
2023/05/05 09:50:51;;;;;;;3.50;0.63;;;22.30;55.00;;;;;;5030908;28;20561;-86
2023/05/05 09:53:17;;;;;;;1.15;1.00;;;22.50;55.00;;;;;;5050330;28;20026;-86
2023/05/05 09:55:52;;;;;;;0.50;0.50;;;22.60;55.00;;;;;;5042056;28;20033;-86
2023/05/05 09:58:20;;;;;;;1.00;0.50;;;22.60;54.70;;;;;;5025428;28;20345;-86
2023/05/05 10:00:46;;;;;;;1.38;0.85;;;22.60;54.50;;;;;;5031959;28;20036;-86
2023/05/05 10:03:12;;;;;;;1.13;0.70;;;22.60;54.20;;;;;;5031464;28;20520;-86
2023/05/05 10:05:52;;;;;;;3.10;0.90;;;22.50;54.30;;;;;;5034855;28;20017;-85
2023/05/05 10:08:20;;;;;;;1.88;1.17;;;22.50;54.40;;;;;;5038924;28;20025;-93
2023/05/05 10:10:53;;;;;;;1.10;0.85;;;22.30;54.80;;;;;;5038851;28;20119;-92
2023/05/05 10:13:21;;;;;;;1.35;0.95;;;22.30;55.30;;;;;;5039390;28;20021;-93
2023/05/05 10:15:49;;;;;;;1.90;1.13;;;22.30;55.40;;;;;;5039753;28;20483;-92
2023/05/05 10:18:22;;;;;;;1.48;1.05;;;22.30;55.30;;;;;;5024577;28;20021;-92
2023/05/05 10:20:56;;;;;;;0.60;0.60;;;22.20;55.10;;;;;;5073471;28;20020;-91
2023/05/05 10:23:23;;;;;;;1.98;1.17;;;22.10;54.60;;;;;;5039373;28;20025;-85
2023/05/05 10:26:12;;;;;;;1.00;0.50;;;21.90;54.60;;;;;;5030324;28;20375;-85
2023/05/05 10:28:44;;;;;;;1.02;0.85;;;21.90;55.10;;;;;;5035764;28;20013;-86
2023/05/05 10:31:19;;;;;;;1.65;0.52;;;22.00;55.30;;;;;;5067259;28;20045;-86
2023/05/05 10:33:56;;;;;;;1.20;0.90;;;22.00;55.40;;;;;;5035377;28;20506;-86
2023/05/05 10:36:23;;;;;;;0.70;0.70;;;22.10;55.50;;;;;;5036173;28;20424;-86
2023/05/05 10:38:52;;;;;;;1.30;0.98;;;22.00;55.60;;;;;;5036571;28;20499;-85
2023/05/05 10:41:20;;;;;;;1.33;0.90;;;21.90;55.60;;;;;;5035027;28;20024;-86
2023/05/05 10:43:46;;;;;;;1.55;0.88;;;21.90;55.90;;;;;;5029180;28;20056;-86
2023/05/05 10:46:12;;;;;;;1.08;0.60;;;21.90;55.80;;;;;;5039219;28;20028;-86
2023/05/05 10:48:55;;;;;;;1.13;0.82;;;22.00;55.70;;;;;;5035211;28;20028;-86
2023/05/05 10:51:31;;;;;;;0.63;0.63;;;21.90;55.60;;;;;;5069664;28;20041;-86
2023/05/05 10:54:11;;;;;;;1.13;0.68;;;22.00;55.80;;;;;;5063918;28;20120;-86
2023/05/05 10:56:39;;;;;;;1.48;0.70;;;22.00;55.60;;;;;;5035183;28;20380;-93
2023/05/05 10:59:36;;;;;;;2.05;1.10;;;22.00;55.70;;;;;;5042298;28;20130;-93
2023/05/05 11:02:21;;;;;;;1.10;0.73;;;22.00;55.80;;;;;;5038031;28;20029;-94
2023/05/05 11:05:07;;;;;;;2.70;0.82;;;22.00;55.80;;;;;;5055948;28;20580;-93
2023/05/05 11:07:36;;;;;;;1.90;0.85;;;22.00;55.90;;;;;;5039608;28;20029;-93
2023/05/05 11:10:06;;;;;;;2.60;1.13;;;22.00;55.80;;;;;;5071209;28;20387;-93
2023/05/05 11:12:52;;;;;;;1.10;0.75;;;22.10;55.80;;;;;;5018439;28;20036;-93
2023/05/05 11:15:27;;;;;;;1.05;0.98;;;22.00;55.90;;;;;;5034489;28;20401;-92
2023/05/05 11:18:03;;;;;;;1.25;0.80;;;22.00;56.00;;;;;;5056736;28;20056;-92
2023/05/05 11:20:35;;;;;;;0.93;0.80;;;22.00;56.20;;;;;;5040469;28;20060;-93
2023/05/05 11:23:01;;;;;;;0.95;0.60;;;22.00;56.20;;;;;;5071288;28;20020;-93
2023/05/05 11:25:36;;;;;;;2.20;1.10;;;21.90;56.20;;;;;;5043579;28;20031;-93
2023/05/05 11:28:12;;;;;;;1.98;1.13;;;21.90;56.20;;;;;;5055253;28;20030;-93
2023/05/05 11:30:53;;;;;;;0.95;0.60;;;21.80;56.40;;;;;;5025194;28;20033;-86
2023/05/05 11:33:38;;;;;;;0.68;0.65;;;21.80;56.40;;;;;;5034746;28;20017;-86
2023/05/05 11:36:12;;;;;;;1.05;0.57;;;21.90;56.50;;;;;;5030470;28;20035;-93
2023/05/05 11:39:28;;;;;;;0.45;0.45;;;21.90;56.30;;;;;;5016558;28;20020;-93
2023/05/05 11:42:07;;;;;;;0.80;0.65;;;21.80;56.40;;;;;;5016111;28;20041;-93
2023/05/05 11:48:22;;;;;;;0.38;0.38;;;21.50;57.20;;;;;;5036680;28;20411;-92
2023/05/05 11:50:49;;;;;;;0.40;0.40;;;21.30;58.10;;;;;;5031593;28;20021;-94
2023/05/05 11:53:52;;;;;;;0.30;0.30;;;21.00;58.90;;;;;;5038386;28;20025;-94
2023/05/05 11:56:20;;;;;;;0.30;0.20;;;20.60;58.50;;;;;;5052237;28;20022;-86
2023/05/05 11:59:05;;;;;;;0.20;0.20;;;20.00;60.00;;;;;;5019801;28;20021;-86
2023/05/05 12:01:30;;;;;;;0.20;0.20;;;19.40;61.60;;;;;;5025558;28;20060;-86
2023/05/05 12:04:15;;;;;;;0.10;0.10;;;18.90;63.50;;;;;;5034604;28;20134;-86
2023/05/05 12:06:41;;;;;;;0.20;0.20;;;18.40;64.50;;;;;;5053042;28;20033;-86
2023/05/05 12:09:20;;;;;;;0.30;0.30;;;18.10;65.90;;;;;;5042699;28;20494;-95
2023/05/05 12:11:53;;;;;;;0.20;0.20;;;18.00;67.10;;;;;;5057514;28;20471;-94
2023/05/05 12:14:20;;;;;;;0.20;0.20;;;17.70;67.90;;;;;;5042581;28;20159;-94
2023/05/05 12:17:01;;;;;;;0.35;0.35;;;17.60;68.20;;;;;;5036299;28;20464;-94
2023/05/05 12:19:31;;;;;;;0.20;0.20;;;17.60;68.90;;;;;;5027896;28;20033;-95
2023/05/05 12:22:01;;;;;;;0.32;0.20;;;17.50;69.20;;;;;;5022714;28;20025;-94
2023/05/05 12:24:27;;;;;;;0.40;0.20;;;17.40;69.70;;;;;;5050968;28;20022;-94
2023/05/05 12:26:52;;;;;;;0.32;0.30;;;17.40;69.80;;;;;;5037417;28;20091;-95
2023/05/05 12:29:27;;;;;;;0.30;0.20;;;17.50;69.80;;;;;;5035167;28;20025;-87
2023/05/05 12:31:53;;;;;;;0.30;0.28;;;17.50;69.90;;;;;;5032304;28;20052;-88
2023/05/05 12:34:20;;;;;;;0.32;0.20;;;17.50;70.10;;;;;;5042375;28;20028;-88
2023/05/05 12:36:46;;;;;;;0.25;0.22;;;17.50;70.30;;;;;;5049180;28;20021;-88
2023/05/05 12:46:02;;;;;;;0.20;0.20;;;17.50;71.00;;;;;;5033992;28;20075;-86
2023/05/05 12:48:30;;;;;;;0.40;0.40;;;17.30;71.80;;;;;;5049842;28;20036;-94
2023/05/05 12:51:19;;;;;;;0.75;0.60;;;17.20;72.00;;;;;;5036354;28;20075;-93
2023/05/05 12:57:10;;;;;;;0.70;0.20;;;17.30;72.00;;;;;;5045568;28;20074;-91
2023/05/05 12:59:36;;;;;;;0.50;0.45;;;17.30;72.10;;;;;;5068646;28;20029;-90
2023/05/05 13:02:01;;;;;;;0.30;0.30;;;17.30;72.20;;;;;;5016507;28;20021;-92
2023/05/05 13:04:28;;;;;;;0.20;0.20;;;17.40;72.60;;;;;;5040880;28;20100;-91
2023/05/05 13:07:13;;;;;;;0.17;0.17;;;17.40;72.20;;;;;;5035385;28;20556;-87
2023/05/05 13:09:40;;;;;;;0.20;0.20;;;17.50;72.30;;;;;;5048488;28;20099;-86
2023/05/05 13:12:10;;;;;;;0.82;0.40;;;17.40;72.50;;;;;;5048080;28;20033;-86
2023/05/05 13:14:36;;;;;;;0.70;0.55;;;17.40;72.60;;;;;;5051199;28;20044;-86